createdAt,value
2022-10-15T00:01:32.738Z,100318.56
2022-10-15T00:06:30.006Z,100315.44
2022-10-15T00:08:56.981Z,100307.91
2022-10-15T00:11:28.312Z,100301.53
2022-10-15T00:13:59.952Z,100299.94
2022-10-15T00:16:29.878Z,100298.28
2022-10-15T00:18:59.893Z,100292.41
2022-10-15T00:21:27.667Z,100292.06
2022-10-15T00:23:55.317Z,100289.28
2022-10-15T00:26:29.851Z,100284.88
2022-10-15T00:29:04.178Z,100281.63
2022-10-15T00:31:33.013Z,100284.41
2022-10-15T00:34:03.284Z,100283.59
2022-10-15T00:36:36.129Z,100279.66
2022-10-15T00:39:06.904Z,100280.50
2022-10-15T00:41:41.802Z,100272.81
2022-10-15T00:44:29.173Z,100274.00
2022-10-15T00:47:35.607Z,100276.41
2022-10-15T00:50:18.621Z,100274.09
2022-10-15T00:53:06.481Z,100276.53
2022-10-15T00:55:40.746Z,100273.28
2022-10-15T00:58:28.546Z,100269.00
2022-10-15T01:00:56.601Z,100262.31
2022-10-15T01:03:24.589Z,100269.13
2022-10-15T01:05:53.714Z,100261.28
2022-10-15T01:08:21.014Z,100250.97
2022-10-15T01:11:17.855Z,100248.66
2022-10-15T01:14:23.026Z,100241.94
2022-10-15T01:17:29.216Z,100233.63
2022-10-15T01:20:44.341Z,100237.19
2022-10-15T01:23:49.269Z,100230.13
2022-10-15T01:26:42.178Z,100229.94
2022-10-15T01:29:49.990Z,100225.63
2022-10-15T01:32:29.872Z,100223.78
2022-10-15T01:35:28.959Z,100224.72
2022-10-15T01:38:45.798Z,100217.53
2022-10-15T01:41:50.558Z,100221.13
2022-10-15T01:44:36.391Z,100218.69
2022-10-15T01:47:48.669Z,100217.06
2022-10-15T01:50:25.249Z,100219.97
2022-10-15T01:52:59.005Z,100215.56
2022-10-15T01:55:29.050Z,100209.78
2022-10-15T01:58:01.774Z,100210.59
2022-10-15T02:00:28.798Z,100216.84
2022-10-15T02:03:04.706Z,100203.88
2022-10-15T02:06:06.285Z,100199.34
2022-10-15T02:08:52.726Z,100195.75
2022-10-15T02:11:20.457Z,100190.31
2022-10-15T02:14:34.666Z,100195.09
2022-10-15T02:17:12.175Z,100186.63
2022-10-15T02:20:17.014Z,100197.25
2022-10-15T02:23:36.340Z,100196.81
2022-10-15T02:26:09.966Z,100195.16
2022-10-15T02:28:45.198Z,100194.03
2022-10-15T02:31:20.290Z,100192.38
2022-10-15T02:33:53.911Z,100195.63
2022-10-15T02:36:22.093Z,100190.53
2022-10-15T02:38:55.973Z,100189.06
2022-10-15T02:41:23.916Z,100183.13
2022-10-15T02:43:50.989Z,100181.84
2022-10-15T02:46:21.303Z,100179.41
2022-10-15T02:48:48.368Z,100173.84
2022-10-15T02:51:15.415Z,100170.97
2022-10-15T02:53:42.442Z,100173.75
2022-10-15T02:56:09.444Z,100182.91
2022-10-15T02:58:36.589Z,100169.34
2022-10-15T03:01:05.454Z,100168.53
2022-10-15T03:03:32.695Z,100169.25
2022-10-15T03:06:00.149Z,100164.81
2022-10-15T03:08:27.362Z,100170.38
2022-10-15T03:10:54.338Z,100171.09
2022-10-15T03:13:21.456Z,100170.50
2022-10-15T03:15:48.474Z,100179.16
2022-10-15T03:18:15.608Z,100173.97
2022-10-15T03:20:42.970Z,100172.69
2022-10-15T03:23:10.004Z,100166.19
2022-10-15T03:25:37.079Z,100159.34
2022-10-15T03:28:04.571Z,100154.25
2022-10-15T03:30:31.602Z,100151.81
2022-10-15T03:32:58.724Z,100154.84
2022-10-15T03:35:25.778Z,100155.97
2022-10-15T03:37:52.900Z,100153.81
2022-10-15T03:40:19.860Z,100155.06
2022-10-15T03:42:52.434Z,100145.47
2022-10-15T03:45:20.721Z,100152.88
2022-10-15T03:47:47.656Z,100140.72
2022-10-15T03:50:15.793Z,100141.25
2022-10-15T03:52:43.629Z,100148.56
2022-10-15T03:55:12.005Z,100147.94
2022-10-15T03:57:39.693Z,100146.06
2022-10-15T04:00:09.522Z,100152.06
2022-10-15T04:02:36.546Z,100148.81
2022-10-15T04:05:04.008Z,100152.13
2022-10-15T04:07:31.001Z,100154.44
2022-10-15T04:09:57.954Z,100149.84
2022-10-15T04:12:25.650Z,100146.25
2022-10-15T04:14:52.839Z,100151.34
2022-10-15T04:17:19.894Z,100151.66
2022-10-15T04:19:47.018Z,100153.03
2022-10-15T04:22:13.968Z,100157.78
2022-10-15T04:24:40.971Z,100158.31
2022-10-15T04:27:08.102Z,100156.72
2022-10-15T04:29:35.250Z,100159.50
2022-10-15T04:32:02.413Z,100159.50
2022-10-15T04:34:29.596Z,100157.84
2022-10-15T04:36:56.708Z,100157.06
2022-10-15T04:39:23.855Z,100158.53
2022-10-15T04:41:50.910Z,100155.28
2022-10-15T04:44:17.959Z,100151.31
2022-10-15T04:46:44.886Z,100157.22
2022-10-15T04:49:12.027Z,100159.88
2022-10-15T04:51:39.617Z,100159.03
2022-10-15T04:54:06.638Z,100164.59
2022-10-15T04:56:33.625Z,100165.41
2022-10-15T04:59:00.730Z,100159.03
2022-10-15T05:01:27.947Z,100162.50
2022-10-15T05:03:54.957Z,100164.31
2022-10-15T05:06:23.109Z,100165.03
2022-10-15T05:08:51.914Z,100165.22
2022-10-15T05:11:26.989Z,100156.09
2022-10-15T05:13:57.912Z,100159.19
2022-10-15T05:16:29.675Z,100154.97
2022-10-15T05:19:05.640Z,100150.78
2022-10-15T05:21:35.927Z,100149.84
2022-10-15T05:24:04.125Z,100151.88
2022-10-15T05:26:32.701Z,100158.75
2022-10-15T05:29:01.185Z,100157.13
2022-10-15T05:31:32.694Z,100160.25
2022-10-15T05:33:59.862Z,100168.09
2022-10-15T05:36:29.913Z,100165.63
2022-10-15T05:39:02.122Z,100173.63
2022-10-15T05:41:30.976Z,100176.25
2022-10-15T05:43:59.425Z,100182.28
2022-10-15T05:46:27.941Z,100187.16
2022-10-15T05:48:59.682Z,100183.38
2022-10-15T05:51:28.907Z,100185.94
2022-10-15T05:53:58.308Z,100191.31
2022-10-15T05:56:27.930Z,100184.44
2022-10-15T05:58:55.924Z,100190.56
2022-10-15T06:01:23.168Z,100201.47
2022-10-15T06:03:50.064Z,100200.78
2022-10-15T06:06:22.937Z,100193.91
2022-10-15T06:08:51.292Z,100195.81
2022-10-15T06:11:18.733Z,100204.28
2022-10-15T06:13:47.360Z,100206.03
2022-10-15T06:16:21.122Z,100215.34
2022-10-15T06:18:53.821Z,100206.00
2022-10-15T06:21:21.746Z,100209.25
2022-10-15T06:23:48.919Z,100208.91
2022-10-15T06:26:16.507Z,100209.38
2022-10-15T06:28:43.526Z,100213.09
2022-10-15T06:31:10.800Z,100217.50
2022-10-15T06:33:37.850Z,100213.69
2022-10-15T06:36:11.327Z,100206.91
2022-10-15T06:38:39.535Z,100206.03
2022-10-15T06:41:10.210Z,100213.56
2022-10-15T06:43:37.218Z,100211.91
2022-10-15T06:46:06.626Z,100222.84
2022-10-15T06:48:34.583Z,100226.22
2022-10-15T06:51:02.564Z,100224.16
2022-10-15T06:53:31.757Z,100233.19
2022-10-15T06:56:02.727Z,100237.84
2022-10-15T06:58:30.591Z,100245.72
2022-10-15T07:01:06.766Z,100240.28
2022-10-15T07:03:33.831Z,100243.50
2022-10-15T07:06:08.708Z,100247.41
2022-10-15T07:08:37.459Z,100256.31
2022-10-15T07:11:09.387Z,100262.19
2022-10-15T07:13:37.588Z,100262.59
2022-10-15T07:16:12.440Z,100273.16
2022-10-15T07:18:40.661Z,100270.91
2022-10-15T07:23:57.424Z,100262.25
2022-10-15T07:26:25.088Z,100255.00
2022-10-15T07:28:52.210Z,100256.13
2022-10-15T07:31:19.182Z,100259.22
2022-10-15T07:33:46.170Z,100248.59
2022-10-15T07:36:13.190Z,100252.97
2022-10-15T07:38:40.705Z,100252.31
2022-10-15T07:41:10.832Z,100250.72
2022-10-15T07:43:39.070Z,100250.09
2022-10-15T07:46:06.563Z,100251.00
2022-10-15T07:48:33.869Z,100250.56
2022-10-15T07:51:07.161Z,100249.03
2022-10-15T07:53:35.627Z,100259.03
2022-10-15T07:56:08.353Z,100252.88
2022-10-15T07:58:38.094Z,100258.16
2022-10-15T08:01:11.071Z,100261.88
2022-10-15T08:03:39.157Z,100262.31
2022-10-15T08:06:08.350Z,100256.91
2022-10-15T08:08:38.129Z,100254.03
2022-10-15T08:11:15.853Z,100253.50
2022-10-15T08:13:46.957Z,100252.50
2022-10-15T08:16:16.858Z,100266.09
2022-10-15T08:18:44.912Z,100267.53
2022-10-15T08:21:13.296Z,100265.53
2022-10-15T08:23:40.379Z,100271.13
2022-10-15T08:26:07.636Z,100269.03
2022-10-15T08:28:36.562Z,100270.50
2022-10-15T08:31:06.109Z,100268.69
2022-10-15T08:33:38.409Z,100269.19
2022-10-15T08:36:08.842Z,100271.22
2022-10-15T08:38:36.049Z,100279.41
2022-10-15T08:41:35.202Z,100269.75
2022-10-15T08:44:04.167Z,100272.91
2022-10-15T08:46:46.650Z,100273.34
2022-10-15T08:49:39.317Z,100275.19
2022-10-15T08:52:42.579Z,100280.72
2022-10-15T08:55:39.380Z,100280.94
2022-10-15T08:58:30.550Z,100283.88
2022-10-15T09:01:23.477Z,100279.47
2022-10-15T09:04:37.754Z,100284.28
2022-10-15T09:07:34.269Z,100290.00
2022-10-15T09:10:49.778Z,100285.66
2022-10-15T09:13:37.762Z,100286.69
2022-10-15T09:16:39.190Z,100293.69
2022-10-15T09:19:19.542Z,100286.53
2022-10-15T09:21:51.951Z,100294.47
2022-10-15T09:24:25.701Z,100291.88
2022-10-15T09:27:22.929Z,100292.78
2022-10-15T09:30:11.533Z,100300.59
2022-10-15T09:33:18.038Z,100295.34
2022-10-15T09:36:15.554Z,100294.72
2022-10-15T09:39:06.482Z,100300.16
2022-10-15T09:42:07.414Z,100296.03
2022-10-15T09:44:43.998Z,100306.56
2022-10-15T09:47:34.060Z,100304.84
2022-10-15T09:50:08.233Z,100311.41
2022-10-15T09:53:39.912Z,100315.19
2022-10-15T09:56:24.291Z,100303.25
2022-10-15T09:58:57.994Z,100303.81
2022-10-15T10:01:33.978Z,100305.13
2022-10-15T10:04:13.732Z,100306.16
2022-10-15T10:06:55.546Z,100315.56
2022-10-15T10:09:36.047Z,100309.19
2022-10-15T10:12:25.439Z,100310.31
2022-10-15T10:15:09.902Z,100316.00
2022-10-15T10:17:37.017Z,100314.78
2022-10-15T10:20:10.190Z,100314.72
2022-10-15T10:22:54.463Z,100312.41
2022-10-15T10:25:31.251Z,100318.47
2022-10-15T10:28:11.710Z,100320.59
2022-10-15T10:30:56.981Z,100322.97
2022-10-15T10:33:41.914Z,100317.31
2022-10-15T10:36:30.924Z,100319.13
2022-10-15T10:39:15.440Z,100319.94
2022-10-15T10:42:00.683Z,100316.66
2022-10-15T10:44:46.491Z,100319.25
2022-10-15T10:47:22.622Z,100311.13
2022-10-15T10:49:51.120Z,100317.13
2022-10-15T10:52:37.696Z,100323.03
2022-10-15T10:55:27.611Z,100332.69
2022-10-15T10:58:02.454Z,100331.91
2022-10-15T11:00:52.652Z,100327.66
2022-10-15T11:03:41.980Z,100334.53
2022-10-15T11:06:32.998Z,100330.66
2022-10-15T11:09:56.446Z,100331.44
2022-10-15T11:12:38.308Z,100324.00
2022-10-15T11:15:44.649Z,100320.69
2022-10-15T11:19:19.101Z,100330.00
2022-10-15T11:22:44.225Z,100323.22
2022-10-15T11:25:41.900Z,100313.72
2022-10-15T11:29:34.105Z,100312.28
2022-10-15T11:32:54.440Z,100316.16
2022-10-15T11:35:53.223Z,100307.47
2022-10-15T11:38:48.312Z,100306.66
2022-10-15T11:41:53.570Z,100309.06
2022-10-15T11:45:02.050Z,100301.22
2022-10-15T11:48:18.592Z,100296.63
2022-10-15T11:51:05.959Z,100300.38
2022-10-15T11:53:57.539Z,100304.16
2022-10-15T11:56:39.057Z,100305.63
2022-10-15T11:59:45.660Z,100308.06
2022-10-15T12:02:34.961Z,100305.66
2022-10-15T12:05:16.593Z,100295.28
2022-10-15T12:07:50.470Z,100293.63
2022-10-15T12:10:56.175Z,100298.66
2022-10-15T12:13:48.788Z,100303.78
2022-10-15T12:16:48.403Z,100292.47
2022-10-15T12:19:26.986Z,100299.50
2022-10-15T12:21:56.594Z,100300.72
2022-10-15T12:24:38.433Z,100296.44
2022-10-15T12:27:25.809Z,100304.44
2022-10-15T12:30:21.071Z,100308.22
2022-10-15T12:32:49.851Z,100309.06
2022-10-15T12:35:16.800Z,100309.00
2022-10-15T12:37:49.656Z,100316.47
2022-10-15T12:40:22.300Z,100316.44
2022-10-15T12:43:16.353Z,100312.06
2022-10-15T12:46:00.998Z,100319.41
2022-10-15T12:48:41.522Z,100314.25
2022-10-15T12:51:17.207Z,100310.72
2022-10-15T12:53:48.642Z,100309.94
2022-10-15T12:56:18.297Z,100306.75
2022-10-15T12:58:56.568Z,100303.91
2022-10-15T13:01:23.450Z,100301.88
2022-10-15T13:03:50.504Z,100293.97
2022-10-15T13:06:20.630Z,100294.47
2022-10-15T13:09:14.501Z,100298.66
2022-10-15T13:11:59.594Z,100299.63
2022-10-15T13:14:55.193Z,100297.25
2022-10-15T13:17:23.458Z,100300.06
2022-10-15T13:20:08.421Z,100293.72
2022-10-15T13:22:37.393Z,100302.53
2022-10-15T13:25:15.354Z,100305.69
2022-10-15T13:27:42.282Z,100296.09
2022-10-15T13:30:16.858Z,100290.84
2022-10-15T13:32:57.189Z,100290.78
2022-10-15T13:35:33.179Z,100301.19
2022-10-15T13:38:04.567Z,100289.19
2022-10-15T13:40:32.902Z,100287.25
2022-10-15T13:43:16.544Z,100293.75
2022-10-15T13:46:15.735Z,100295.41
2022-10-15T13:51:13.411Z,100290.28
2022-10-15T13:53:42.472Z,100291.44
2022-10-15T13:56:33.238Z,100297.25
2022-10-15T13:59:03.626Z,100296.56
2022-10-15T14:01:34.906Z,100292.84
2022-10-15T14:04:04.012Z,100290.47
2022-10-15T14:06:41.767Z,100288.81
2022-10-15T14:09:26.931Z,100290.47
2022-10-15T14:11:59.087Z,100296.09
2022-10-15T14:14:43.993Z,100291.66
2022-10-15T14:17:24.000Z,100289.38
2022-10-15T14:20:26.895Z,100287.84
2022-10-15T14:22:54.898Z,100295.88
2022-10-15T14:25:26.739Z,100298.50
2022-10-15T14:27:54.059Z,100286.38
2022-10-15T14:30:34.082Z,100287.25
2022-10-15T14:33:01.138Z,100285.88
2022-10-15T14:35:37.982Z,100289.75
2022-10-15T14:38:16.957Z,100296.44
2022-10-15T14:41:07.853Z,100289.97
2022-10-15T14:43:38.183Z,100297.25
2022-10-15T14:46:18.872Z,100303.16
2022-10-15T14:48:46.166Z,100299.50
2022-10-15T14:51:25.525Z,100297.69
2022-10-15T14:53:54.456Z,100300.41
2022-10-15T14:56:33.635Z,100289.00
2022-10-15T14:59:02.167Z,100298.88
2022-10-15T15:01:31.633Z,100297.06
2022-10-15T15:03:59.645Z,100299.31
2022-10-15T15:06:26.459Z,100303.63
2022-10-15T15:08:53.398Z,100298.41
2022-10-15T15:11:25.562Z,100303.03
2022-10-15T15:13:55.528Z,100304.53
2022-10-15T15:16:22.504Z,100309.63
2022-10-15T15:18:49.456Z,100307.97
2022-10-15T15:21:24.430Z,100306.81
2022-10-15T15:23:51.768Z,100305.16
2022-10-15T15:26:18.761Z,100312.25
2022-10-15T15:28:45.761Z,100309.00
2022-10-15T15:31:18.945Z,100302.50
2022-10-15T15:33:47.879Z,100297.16
2022-10-15T15:36:22.483Z,100306.63
2022-10-15T15:38:51.279Z,100302.47
2022-10-15T15:41:22.720Z,100310.22
2022-10-15T15:43:52.143Z,100306.38
2022-10-15T15:46:19.152Z,100312.44
2022-10-15T15:48:46.136Z,100310.97
2022-10-15T15:51:28.614Z,100309.13
2022-10-15T15:53:57.979Z,100312.06
2022-10-15T15:56:26.061Z,100310.66
2022-10-15T15:58:53.109Z,100316.34
2022-10-15T16:01:21.239Z,100315.66
2022-10-15T16:03:48.331Z,100318.19
2022-10-15T16:06:15.726Z,100319.56
2022-10-15T16:08:42.687Z,100326.13
2022-10-15T16:11:09.866Z,100319.94
2022-10-15T16:13:36.912Z,100319.78
2022-10-15T16:16:04.631Z,100318.41
2022-10-15T16:18:31.587Z,100318.59
2022-10-15T16:20:58.732Z,100331.19
2022-10-15T16:23:25.913Z,100331.44
2022-10-15T16:25:55.009Z,100335.22
2022-10-15T16:28:21.983Z,100329.09
2022-10-15T16:30:49.258Z,100338.78
2022-10-15T16:33:16.393Z,100330.69
2022-10-15T16:35:43.379Z,100330.94
2022-10-15T16:38:10.444Z,100331.53
2022-10-15T16:40:39.053Z,100337.59
2022-10-15T16:43:05.981Z,100339.75
2022-10-15T16:45:33.577Z,100344.75
2022-10-15T16:48:00.487Z,100349.06
2022-10-15T16:50:27.411Z,100346.53
2022-10-15T16:52:54.332Z,100352.34
2022-10-15T16:55:21.254Z,100365.00
2022-10-15T16:57:48.161Z,100358.84
2022-10-15T17:00:15.157Z,100361.09
2022-10-15T17:02:42.158Z,100370.59
2022-10-15T17:05:09.280Z,100372.91
2022-10-15T17:07:36.231Z,100377.47
2022-10-15T17:10:04.024Z,100378.16
2022-10-15T17:12:30.941Z,100378.88
2022-10-15T17:14:57.855Z,100385.13
2022-10-15T17:17:24.887Z,100384.31
2022-10-15T17:19:51.838Z,100393.38
2022-10-15T17:22:18.973Z,100390.34
2022-10-15T17:24:45.985Z,100389.56
2022-10-15T17:27:12.927Z,100387.09
2022-10-15T17:29:39.912Z,100392.22
2022-10-15T17:32:06.972Z,100400.34
2022-10-15T17:34:34.394Z,100410.31
2022-10-15T17:37:02.138Z,100401.84
2022-10-15T17:39:29.112Z,100395.81
2022-10-15T17:41:56.115Z,100396.97
2022-10-15T17:44:23.167Z,100397.44
2022-10-15T17:46:50.607Z,100406.03
2022-10-15T17:49:18.900Z,100402.88
2022-10-15T17:51:47.310Z,100397.69
2022-10-15T17:54:14.829Z,100391.06
2022-10-15T17:56:42.312Z,100396.50
2022-10-15T17:59:12.911Z,100394.53
2022-10-15T18:01:57.951Z,100399.28
2022-10-15T18:04:28.655Z,100397.31
2022-10-15T18:06:55.876Z,100400.09
2022-10-15T18:09:22.866Z,100399.75
2022-10-15T18:11:49.883Z,100394.63
2022-10-15T18:14:18.158Z,100396.97
2022-10-15T18:16:45.967Z,100399.88
2022-10-15T18:19:13.354Z,100398.94
2022-10-15T18:21:40.376Z,100399.16
2022-10-15T18:24:07.437Z,100402.09
2022-10-15T18:26:34.437Z,100409.50
2022-10-15T18:29:01.643Z,100408.00
2022-10-15T18:31:28.879Z,100409.16
2022-10-15T18:33:56.675Z,100414.97
2022-10-15T18:36:31.506Z,100406.84
2022-10-15T18:38:59.837Z,100413.47
2022-10-15T18:41:38.200Z,100413.34
2022-10-15T18:44:20.873Z,100411.69
2022-10-15T18:46:48.015Z,100425.41
2022-10-15T18:49:19.006Z,100417.72
2022-10-15T18:51:49.029Z,100427.13
2022-10-15T18:54:16.029Z,100419.81
2022-10-15T18:56:43.106Z,100417.38
2022-10-15T18:59:10.388Z,100414.59
2022-10-15T19:01:44.050Z,100416.91
2022-10-15T19:04:19.100Z,100414.13
2022-10-15T19:06:52.007Z,100413.19
2022-10-15T19:09:29.655Z,100414.22
2022-10-15T19:11:58.844Z,100403.81
2022-10-15T19:14:29.139Z,100414.47
2022-10-15T19:16:56.739Z,100408.06
2022-10-15T19:19:26.188Z,100410.38
2022-10-15T19:21:53.733Z,100407.84
2022-10-15T19:24:23.091Z,100413.94
2022-10-15T19:26:52.717Z,100423.31
2022-10-15T19:29:20.732Z,100421.56
2022-10-15T19:31:49.788Z,100415.19
2022-10-15T19:34:16.943Z,100431.53
2022-10-15T19:36:48.545Z,100423.53
2022-10-15T19:39:23.576Z,100426.56
2022-10-15T19:41:53.023Z,100428.34
2022-10-15T19:44:25.393Z,100425.22
2022-10-15T19:46:54.683Z,100420.00
2022-10-15T19:49:22.251Z,100417.41
2022-10-15T19:51:50.592Z,100415.78
2022-10-15T19:54:18.209Z,100416.50
2022-10-15T19:56:45.504Z,100418.31
2022-10-15T19:59:13.754Z,100428.16
2022-10-15T20:01:40.856Z,100416.22
2022-10-15T20:04:07.922Z,100427.00
2022-10-15T20:06:38.610Z,100435.69
2022-10-15T20:09:09.693Z,100442.75
2022-10-15T20:11:37.969Z,100437.53
2022-10-15T20:14:05.072Z,100446.22
2022-10-15T20:16:33.455Z,100457.31
2022-10-15T20:19:06.443Z,100469.75
2022-10-15T20:21:33.971Z,100463.03
2022-10-15T20:24:04.639Z,100468.59
2022-10-15T20:26:32.825Z,100469.41
2022-10-15T20:29:00.446Z,100458.06
2022-10-15T20:31:32.335Z,100456.91
2022-10-15T20:34:00.964Z,100459.91
2022-10-15T20:36:28.706Z,100463.38
2022-10-15T20:38:57.528Z,100474.50
2022-10-15T20:41:24.766Z,100478.44
2022-10-15T20:43:56.586Z,100473.50
2022-10-15T20:46:36.944Z,100464.34
2022-10-15T20:49:14.410Z,100471.28
2022-10-15T20:51:45.131Z,100470.72
2022-10-15T20:54:15.616Z,100477.56
2022-10-15T20:56:42.840Z,100480.72
2022-10-15T20:59:09.941Z,100481.91
2022-10-15T21:01:37.924Z,100485.16
2022-10-15T21:04:05.954Z,100482.72
2022-10-15T21:06:33.347Z,100492.63
2022-10-15T21:09:00.804Z,100494.34
2022-10-15T21:11:28.631Z,100506.06
2022-10-15T21:13:55.978Z,100503.75
2022-10-15T21:16:25.895Z,100499.34
2022-10-15T21:18:55.701Z,100503.97
2022-10-15T21:21:22.797Z,100500.59
2022-10-15T21:23:49.732Z,100504.56
2022-10-15T21:26:19.276Z,100499.19
2022-10-15T21:28:47.047Z,100497.81
2022-10-15T21:31:18.069Z,100507.66
2022-10-15T21:33:46.163Z,100500.13
2022-10-15T21:36:22.875Z,100498.72
2022-10-15T21:39:06.685Z,100503.56
2022-10-15T21:41:38.482Z,100505.75
2022-10-15T21:44:08.747Z,100501.22
2022-10-15T21:46:36.452Z,100509.75
2022-10-15T21:49:04.104Z,100503.94
2022-10-15T21:51:33.955Z,100508.06
2022-10-15T21:54:04.695Z,100507.81
2022-10-15T21:56:33.321Z,100512.91
2022-10-15T21:59:00.441Z,100512.06
2022-10-15T22:01:35.586Z,100511.28
2022-10-15T22:04:10.517Z,100515.34
2022-10-15T22:06:40.252Z,100517.63
2022-10-15T22:09:10.225Z,100522.41
2022-10-15T22:11:41.957Z,100534.22
2022-10-15T22:14:14.731Z,100537.81
2022-10-15T22:16:42.752Z,100531.63
2022-10-15T22:19:14.421Z,100525.72
2022-10-15T22:21:42.020Z,100529.94
2022-10-15T22:24:21.618Z,100525.00
2022-10-15T22:26:52.827Z,100525.75
2022-10-15T22:29:33.071Z,100535.56
2022-10-15T22:32:02.563Z,100530.06
2022-10-15T22:34:29.564Z,100525.25
2022-10-15T22:36:56.468Z,100521.97
2022-10-15T22:39:23.436Z,100519.53
2022-10-15T22:41:50.382Z,100518.59
2022-10-15T22:44:21.394Z,100517.16
2022-10-15T22:46:49.755Z,100524.16
2022-10-15T22:49:22.180Z,100522.31
2022-10-15T22:51:50.912Z,100520.91
2022-10-15T22:54:22.324Z,100519.13
2022-10-15T22:56:51.373Z,100526.53
2022-10-15T22:59:19.481Z,100529.13
2022-10-15T23:01:46.594Z,100529.78
2022-10-15T23:04:16.501Z,100534.41
2022-10-15T23:06:44.235Z,100535.66
2022-10-15T23:09:17.785Z,100534.69
2022-10-15T23:11:45.575Z,100540.78
2022-10-15T23:14:16.919Z,100544.03
2022-10-15T23:16:48.254Z,100545.22
2022-10-15T23:19:22.422Z,100540.66
2022-10-15T23:21:56.627Z,100555.84
2022-10-15T23:24:27.400Z,100554.84
2022-10-15T23:26:54.534Z,100560.22
2022-10-15T23:29:26.135Z,100555.22
2022-10-15T23:31:55.361Z,100563.81
2022-10-15T23:34:26.219Z,100561.19
2022-10-15T23:36:53.999Z,100565.19
2022-10-15T23:39:27.070Z,100560.19
2022-10-15T23:41:55.042Z,100565.28
2022-10-15T23:44:25.535Z,100565.91
2022-10-15T23:46:52.827Z,100561.28
2022-10-15T23:49:19.867Z,100571.63
2022-10-15T23:51:46.860Z,100567.78
2022-10-15T23:54:18.370Z,100567.69
2022-10-15T23:56:47.148Z,100569.78
2022-10-15T23:59:15.020Z,100569.44
